Mechanicsburg, Pennsylvania
Current Conditions -  °F | °C
As of 8:56 AM on Thursday 23 Oct 2014 (Local Time) from KCXY Reporting Station
Overcast Overcast  
Wind Chill: 55°   Ceiling: 3200
Heat Index: 55°   Visibility: 10mi
Dew Point: 42°   Wind: 14mph
Humidity: 62%   Direction: 310°NW
Pressure: 29.88"   Gusts: NA
Location:  40.21°N, 77.01°W
Report Text: KCXY 231256Z 31012KT 10SM OVC032 13/06 A2988 RMK AO2 SLP120 T01280056
Loading
Personal Weather Stations






























Interactive Weather Map
Tropical Storm Tracking
New forecast layout! Learn more

10-Day Weather Forecast

Advertisements
Track Severe Weather on mobile